Time;durP1;ratioP1;P1;durP2;ratioP2;P2;SDS_P1;SDS_P2;PMS_P1;PMS_P2;Temp;Humidity;BMP_temperature;BMP_pressure;BME280_temperature;BME280_humidity;BME280_pressure;Samples;Min_cycle;Max_cycle;Signal;HPM_P1;HPM_P2
2022/04/28 00:00:11;;;;;;;32.35;22.48;;;;;;;;;;5034578;28;20033;-88
2022/04/28 00:02:37;;;;;;;30.02;22.38;;;;;;;;;;5016120;28;20026;-88
2022/04/28 00:05:04;;;;;;;32.28;22.08;;;;;;;;;;5003741;28;20063;-88
2022/04/28 00:07:30;;;;;;;31.70;21.98;;;;;;;;;;5029875;28;20415;-87
2022/04/28 00:09:56;;;;;;;35.45;22.65;;;;;;;;;;5029891;28;20065;-88
2022/04/28 00:12:23;;;;;;;31.90;21.95;;;;;;;;;;5004845;28;20049;-87
2022/04/28 00:14:49;;;;;;;32.67;21.80;;;;;;;;;;5031991;28;20049;-88
2022/04/28 00:17:15;;;;;;;34.15;21.95;;;;;;;;;;5040058;28;20331;-87
2022/04/28 00:20:01;;;;;;;36.58;23.20;;;;;;;;;;5020081;28;20033;-87
2022/04/28 00:22:27;;;;;;;34.40;22.77;;;;;;;;;;5010010;28;20133;-87
2022/04/28 00:24:53;;;;;;;34.03;22.10;;;;;;;;;;5019777;28;20022;-87
2022/04/28 00:27:19;;;;;;;35.17;22.15;;;;;;;;;;5032036;28;20117;-87
2022/04/28 00:29:46;;;;;;;33.63;22.23;;;;;;;;;;5018521;28;20396;-87
2022/04/28 00:32:12;;;;;;;31.92;21.98;;;;;;;;;;5018184;28;20034;-87
2022/04/28 00:34:38;;;;;;;36.60;23.73;;;;;;;;;;5017815;28;20038;-87
2022/04/28 00:37:08;;;;;;;29.95;22.33;;;;;;;;;;5019349;28;20037;-87
2022/04/28 00:39:34;;;;;;;29.80;20.77;;;;;;;;;;5019232;28;20030;-90
2022/04/28 00:42:00;;;;;;;28.70;20.70;;;;;;;;;;5033713;28;20409;-90
2022/04/28 00:44:26;;;;;;;29.20;21.30;;;;;;;;;;5000202;28;20479;-88
2022/04/28 00:46:52;;;;;;;28.35;20.00;;;;;;;;;;5015241;28;20030;-87
2022/04/28 00:52:03;;;;;;;28.77;20.35;;;;;;;;;;5000081;28;20092;-87
2022/04/28 00:54:29;;;;;;;28.92;20.42;;;;;;;;;;5009001;28;20032;-87
2022/04/28 00:56:56;;;;;;;28.33;20.17;;;;;;;;;;5013121;28;20030;-87
2022/04/28 00:59:22;;;;;;;30.80;20.55;;;;;;;;;;4999721;28;20030;-88
2022/04/28 01:01:48;;;;;;;27.58;20.02;;;;;;;;;;5005525;28;20061;-87
2022/04/28 01:04:14;;;;;;;28.10;19.88;;;;;;;;;;5017467;28;20022;-89
2022/04/28 01:06:41;;;;;;;28.13;20.33;;;;;;;;;;5004680;28;20026;-88
2022/04/28 01:09:07;;;;;;;28.48;19.83;;;;;;;;;;5002329;28;20027;-88
2022/04/28 01:11:34;;;;;;;27.23;19.90;;;;;;;;;;5019110;28;20033;-88
2022/04/28 01:14:00;;;;;;;26.05;19.50;;;;;;;;;;5018648;28;20317;-88
2022/04/28 01:16:27;;;;;;;26.73;18.85;;;;;;;;;;5026626;28;20022;-87
2022/04/28 01:18:53;;;;;;;26.00;18.95;;;;;;;;;;5039263;28;20060;-88
2022/04/28 01:21:20;;;;;;;24.95;18.45;;;;;;;;;;5017672;28;20073;-88
2022/04/28 01:23:46;;;;;;;26.52;18.33;;;;;;;;;;5018456;28;20029;-87
2022/04/28 01:26:14;;;;;;;24.60;18.40;;;;;;;;;;5014484;28;20030;-88
2022/04/28 01:28:40;;;;;;;25.00;17.13;;;;;;;;;;5014939;28;20034;-88
2022/04/28 01:31:06;;;;;;;23.23;16.52;;;;;;;;;;4998845;28;20416;-87
2022/04/28 01:39:40;;;;;;;23.75;17.65;;;;;;;;;;5015052;28;20086;-88
2022/04/28 01:42:06;;;;;;;23.17;17.83;;;;;;;;;;5004181;28;20025;-88
2022/04/28 01:44:33;;;;;;;25.48;18.27;;;;;;;;;;5050025;28;20124;-88
2022/04/28 01:46:59;;;;;;;23.40;17.80;;;;;;;;;;5018065;28;20056;-87
2022/04/28 01:49:25;;;;;;;22.27;17.25;;;;;;;;;;5016586;28;20030;-88
2022/04/28 01:57:31;;;;;;;22.27;16.85;;;;;;;;;;5036249;28;20434;-87
2022/04/28 02:00:00;;;;;;;23.95;18.02;;;;;;;;;;5052554;28;20048;-87
2022/04/28 02:02:27;;;;;;;24.65;17.42;;;;;;;;;;5052188;28;20037;-87
2022/04/28 02:04:58;;;;;;;24.30;19.02;;;;;;;;;;5038928;28;20020;-87
2022/04/28 02:07:25;;;;;;;25.65;18.30;;;;;;;;;;5038939;28;20039;-87
2022/04/28 02:09:51;;;;;;;23.70;17.55;;;;;;;;;;5045079;28;20022;-87
2022/04/28 02:12:17;;;;;;;25.63;17.77;;;;;;;;;;5035584;28;20037;-86
2022/04/28 02:14:43;;;;;;;25.38;18.40;;;;;;;;;;5036185;28;20053;-87
2022/04/28 02:17:09;;;;;;;24.73;18.00;;;;;;;;;;5051962;28;20068;-87
2022/04/28 02:19:36;;;;;;;22.05;17.33;;;;;;;;;;5036045;28;20394;-87
2022/04/28 02:22:02;;;;;;;23.25;17.48;;;;;;;;;;5041148;28;20436;-86
2022/04/28 02:24:29;;;;;;;23.17;17.73;;;;;;;;;;5016227;28;20026;-87
2022/04/28 02:26:55;;;;;;;27.65;19.10;;;;;;;;;;5016381;28;20045;-88
2022/04/28 02:29:21;;;;;;;25.52;17.80;;;;;;;;;;5032135;28;20124;-87
2022/04/28 02:31:47;;;;;;;24.73;18.45;;;;;;;;;;5016219;28;20030;-87
2022/04/28 02:34:13;;;;;;;23.73;18.20;;;;;;;;;;5008444;28;20364;-88
2022/04/28 02:36:39;;;;;;;25.67;18.08;;;;;;;;;;5013594;28;20026;-88
2022/04/28 02:39:05;;;;;;;24.02;18.58;;;;;;;;;;5016421;28;20137;-87
2022/04/28 02:41:31;;;;;;;25.73;18.90;;;;;;;;;;5013157;28;20037;-88
2022/04/28 02:43:57;;;;;;;24.00;17.20;;;;;;;;;;5002213;28;20102;-87
2022/04/28 02:46:23;;;;;;;26.17;18.73;;;;;;;;;;5010175;28;20025;-88
2022/04/28 02:51:53;;;;;;;23.30;17.40;;;;;;;;;;5003053;28;20049;-87
2022/04/28 02:54:19;;;;;;;26.48;17.98;;;;;;;;;;5017424;28;20027;-87
2022/04/28 02:56:45;;;;;;;28.70;20.60;;;;;;;;;;5002595;28;20054;-88
2022/04/28 02:59:11;;;;;;;31.63;23.63;;;;;;;;;;5016955;28;20031;-88
2022/04/28 03:01:37;;;;;;;29.85;22.42;;;;;;;;;;5002075;28;20053;-87
2022/04/28 03:13:19;;;;;;;28.33;21.35;;;;;;;;;;5039264;28;20182;-87
2022/04/28 03:15:46;;;;;;;30.48;20.30;;;;;;;;;;5020142;28;20092;-88
2022/04/28 03:18:13;;;;;;;23.42;18.65;;;;;;;;;;5039266;28;20076;-88
2022/04/28 03:20:39;;;;;;;25.33;18.45;;;;;;;;;;5038641;28;20100;-87
2022/04/28 03:23:05;;;;;;;24.95;18.17;;;;;;;;;;5038972;28;20037;-87
2022/04/28 03:25:31;;;;;;;27.88;18.63;;;;;;;;;;5039234;28;20048;-88
2022/04/28 03:27:58;;;;;;;23.30;17.23;;;;;;;;;;5039235;28;20026;-88
2022/04/28 03:30:24;;;;;;;28.67;18.95;;;;;;;;;;5038700;28;20030;-87
2022/04/28 03:32:50;;;;;;;24.45;18.55;;;;;;;;;;5055438;28;20476;-86
2022/04/28 03:35:16;;;;;;;27.88;19.67;;;;;;;;;;5038768;28;20029;-88
2022/04/28 03:37:47;;;;;;;27.30;20.75;;;;;;;;;;5038667;28;20042;-87
2022/04/28 03:40:13;;;;;;;26.95;20.58;;;;;;;;;;5038889;28;20068;-87
2022/04/28 03:42:39;;;;;;;22.80;17.85;;;;;;;;;;5038433;28;20029;-87
2022/04/28 03:45:05;;;;;;;26.05;19.33;;;;;;;;;;5034218;28;20081;-88
2022/04/28 03:47:32;;;;;;;28.67;20.27;;;;;;;;;;5001352;28;20439;-88
2022/04/28 03:49:59;;;;;;;24.42;19.33;;;;;;;;;;5015689;28;20023;-87
2022/04/28 03:52:25;;;;;;;26.27;19.73;;;;;;;;;;5000768;28;20030;-87
2022/04/28 03:54:51;;;;;;;25.92;19.25;;;;;;;;;;5027334;28;20031;-88
2022/04/28 03:57:17;;;;;;;25.67;20.73;;;;;;;;;;5019908;28;20041;-89
2022/04/28 03:59:43;;;;;;;27.63;21.13;;;;;;;;;;5019582;28;20022;-87
2022/04/28 04:02:10;;;;;;;29.10;19.58;;;;;;;;;;5016825;28;20034;-88
2022/04/28 04:04:36;;;;;;;24.98;18.65;;;;;;;;;;5001045;28;20022;-87
2022/04/28 04:07:02;;;;;;;24.33;18.55;;;;;;;;;;5001173;28;20034;-88
2022/04/28 04:09:29;;;;;;;26.67;19.65;;;;;;;;;;5018383;28;20030;-88
2022/04/28 04:11:55;;;;;;;26.83;19.35;;;;;;;;;;5009992;28;20037;-88
2022/04/28 04:14:21;;;;;;;23.42;18.77;;;;;;;;;;5019435;28;20029;-88
2022/04/28 04:16:47;;;;;;;31.50;21.35;;;;;;;;;;5006347;28;20416;-87
2022/04/28 04:19:13;;;;;;;27.15;21.02;;;;;;;;;;5008858;28;20404;-87
2022/04/28 04:21:39;;;;;;;26.15;19.52;;;;;;;;;;5003099;28;20046;-87
2022/04/28 04:24:06;;;;;;;25.38;19.67;;;;;;;;;;5000407;28;20472;-87
2022/04/28 04:26:32;;;;;;;26.38;19.20;;;;;;;;;;5011700;28;20106;-88
2022/04/28 04:28:58;;;;;;;25.63;19.45;;;;;;;;;;5000301;28;20475;-88
2022/04/28 04:34:45;;;;;;;26.88;19.08;;;;;;;;;;5018674;28;20032;-89
2022/04/28 04:37:11;;;;;;;24.73;19.35;;;;;;;;;;5018037;28;20049;-88
2022/04/28 04:39:38;;;;;;;26.08;19.08;;;;;;;;;;5019610;28;20054;-90
2022/04/28 04:42:04;;;;;;;24.17;19.42;;;;;;;;;;5003860;28;20018;-88
2022/04/28 04:44:30;;;;;;;27.33;19.90;;;;;;;;;;5019786;28;20029;-88
2022/04/28 04:46:56;;;;;;;25.75;20.60;;;;;;;;;;5003225;28;20109;-88
2022/04/28 04:49:23;;;;;;;28.10;20.17;;;;;;;;;;4999775;28;20033;-90
2022/04/28 04:51:49;;;;;;;25.85;20.00;;;;;;;;;;5015067;28;20038;-87
2022/04/28 04:54:15;;;;;;;29.40;20.30;;;;;;;;;;4999757;28;20045;-88
2022/04/28 04:56:41;;;;;;;26.75;21.20;;;;;;;;;;4999675;28;20033;-88
2022/04/28 04:59:07;;;;;;;27.92;20.70;;;;;;;;;;5019294;28;20412;-89
2022/04/28 05:01:33;;;;;;;23.73;19.15;;;;;;;;;;5008690;28;20113;-88
2022/04/28 05:04:11;;;;;;;27.75;19.70;;;;;;;;;;5015008;28;20037;-89
2022/04/28 05:06:37;;;;;;;22.73;19.40;;;;;;;;;;5001517;28;20030;-89
2022/04/28 05:09:03;;;;;;;26.92;21.35;;;;;;;;;;5018883;28;20022;-90
2022/04/28 05:11:29;;;;;;;25.70;20.75;;;;;;;;;;5019222;28;20025;-89
2022/04/28 05:13:55;;;;;;;24.52;20.52;;;;;;;;;;5018150;28;20415;-89
2022/04/28 05:16:21;;;;;;;24.85;19.58;;;;;;;;;;5007363;28;20027;-89
2022/04/28 05:18:48;;;;;;;24.27;19.77;;;;;;;;;;4999289;28;20037;-88
2022/04/28 05:21:14;;;;;;;24.98;19.67;;;;;;;;;;5014316;28;20050;-88
2022/04/28 05:23:40;;;;;;;23.42;19.70;;;;;;;;;;4999582;28;20408;-89
2022/04/28 05:26:06;;;;;;;27.52;20.42;;;;;;;;;;5015505;28;20035;-90
2022/04/28 05:28:32;;;;;;;23.05;19.20;;;;;;;;;;5030981;28;20031;-89
2022/04/28 05:30:58;;;;;;;27.67;20.50;;;;;;;;;;5031099;28;20113;-90
2022/04/28 05:33:24;;;;;;;26.08;20.52;;;;;;;;;;4999316;28;20060;-87
2022/04/28 05:38:54;;;;;;;27.73;22.05;;;;;;;;;;5006499;28;20033;-88
2022/04/28 05:41:20;;;;;;;28.42;21.52;;;;;;;;;;5008006;28;20467;-89
2022/04/28 05:46:31;;;;;;;24.95;20.75;;;;;;;;;;5012615;28;20434;-88
2022/04/28 05:48:57;;;;;;;30.23;23.85;;;;;;;;;;5003281;28;20030;-85
2022/04/28 05:51:23;;;;;;;31.60;24.75;;;;;;;;;;4998620;28;20037;-87
2022/04/28 05:53:49;;;;;;;25.88;21.60;;;;;;;;;;4999967;28;20101;-89
2022/04/28 05:56:16;;;;;;;26.77;20.30;;;;;;;;;;5018272;28;20023;-88
2022/04/28 05:58:42;;;;;;;25.20;20.55;;;;;;;;;;5001424;28;20023;-89
2022/04/28 06:01:08;;;;;;;28.48;23.05;;;;;;;;;;5009000;28;20026;-90
2022/04/28 06:03:34;;;;;;;26.05;20.33;;;;;;;;;;5017713;28;20026;-89
2022/04/28 06:06:37;;;;;;;26.02;20.85;;;;;;;;;;4999845;28;20150;-88
2022/04/28 06:09:03;;;;;;;26.75;20.60;;;;;;;;;;5014919;28;20069;-86
2022/04/28 06:11:29;;;;;;;27.00;20.50;;;;;;;;;;5030396;28;20014;-87
2022/04/28 06:13:55;;;;;;;27.55;21.92;;;;;;;;;;5017124;28;20061;-87
2022/04/28 06:16:22;;;;;;;29.27;22.42;;;;;;;;;;5009956;28;20052;-87
2022/04/28 06:18:48;;;;;;;30.13;22.55;;;;;;;;;;5013724;28;20022;-87
2022/04/28 06:21:14;;;;;;;26.08;21.70;;;;;;;;;;5015260;28;20145;-87
2022/04/28 06:23:42;;;;;;;35.08;27.42;;;;;;;;;;4982618;28;20050;-88
2022/04/28 06:26:08;;;;;;;33.78;26.25;;;;;;;;;;4980124;28;20030;-88
2022/04/28 06:28:34;;;;;;;37.95;27.60;;;;;;;;;;4986924;28;20042;-88
2022/04/28 06:31:00;;;;;;;60.35;32.83;;;;;;;;;;4997094;28;20034;-87
2022/04/28 06:33:26;;;;;;;54.50;29.67;;;;;;;;;;4992794;28;20030;-88
2022/04/28 06:41:59;;;;;;;61.92;28.77;;;;;;;;;;4980092;28;20560;-88
2022/04/28 06:44:25;;;;;;;33.20;23.27;;;;;;;;;;4987646;28;20035;-88
2022/04/28 06:46:51;;;;;;;35.85;21.63;;;;;;;;;;4994039;28;20058;-88
2022/04/28 06:52:38;;;;;;;72.90;29.88;;;;;;;;;;4989699;28;20050;-88
2022/04/28 06:55:05;;;;;;;37.83;23.42;;;;;;;;;;4978428;28;20047;-87
2022/04/28 06:57:32;;;;;;;32.75;24.83;;;;;;;;;;4978822;28;20425;-87
2022/04/28 06:59:58;;;;;;;30.10;24.13;;;;;;;;;;4978762;28;20125;-88
2022/04/28 07:02:24;;;;;;;28.55;22.45;;;;;;;;;;4985580;28;20032;-88
2022/04/28 07:05:09;;;;;;;24.65;20.63;;;;;;;;;;4996608;28;20026;-88
2022/04/28 07:07:35;;;;;;;25.08;20.35;;;;;;;;;;4997947;28;20030;-88
2022/04/28 07:10:01;;;;;;;25.55;20.15;;;;;;;;;;4993484;28;20031;-89
2022/04/28 07:12:27;;;;;;;27.38;20.48;;;;;;;;;;4978864;28;20073;-89
2022/04/28 07:14:53;;;;;;;24.90;20.35;;;;;;;;;;4987191;28;20420;-89
2022/04/28 07:17:19;;;;;;;27.48;20.63;;;;;;;;;;4994425;28;20420;-90
2022/04/28 07:19:46;;;;;;;22.92;19.08;;;;;;;;;;4996485;28;20043;-89
2022/04/28 07:22:12;;;;;;;23.48;18.35;;;;;;;;;;4997360;28;20065;-89
2022/04/28 07:24:38;;;;;;;24.13;17.88;;;;;;;;;;4988289;28;20023;-87
2022/04/28 07:27:04;;;;;;;21.80;17.98;;;;;;;;;;4996008;28;20371;-88
2022/04/28 07:29:31;;;;;;;24.13;18.35;;;;;;;;;;4999991;28;20042;-87
2022/04/28 07:31:57;;;;;;;28.15;20.42;;;;;;;;;;4994822;28;20030;-89
2022/04/28 07:34:23;;;;;;;25.77;17.83;;;;;;;;;;4984582;28;20030;-90
2022/04/28 07:36:49;;;;;;;24.60;19.60;;;;;;;;;;5001521;28;20043;-89
2022/04/28 07:39:15;;;;;;;25.33;19.92;;;;;;;;;;4999474;28;20052;-88
2022/04/28 07:41:41;;;;;;;23.98;18.80;;;;;;;;;;5000594;28;20034;-88
2022/04/28 07:44:07;;;;;;;23.08;17.35;;;;;;;;;;5001106;28;20101;-88
2022/04/28 07:46:34;;;;;;;22.92;17.38;;;;;;;;;;5012416;28;20125;-89
2022/04/28 07:49:01;;;;;;;20.83;15.93;;;;;;;;;;5000571;28;20069;-88
2022/04/28 07:51:27;;;;;;;22.42;17.85;;;;;;;;;;5006650;28;20395;-88
2022/04/28 07:53:53;;;;;;;20.60;16.90;;;;;;;;;;5000269;28;20023;-88
2022/04/28 07:56:20;;;;;;;23.23;18.27;;;;;;;;;;5011048;28;20304;-89
2022/04/28 07:58:46;;;;;;;22.40;18.27;;;;;;;;;;5020602;28;20101;-88
2022/04/28 08:01:12;;;;;;;27.05;20.45;;;;;;;;;;5008206;28;20030;-90
2022/04/28 08:03:39;;;;;;;25.80;19.48;;;;;;;;;;4999739;28;20026;-88
2022/04/28 08:06:05;;;;;;;21.65;17.17;;;;;;;;;;4999784;28;20798;-88
2022/04/28 08:08:33;;;;;;;18.33;14.55;;;;;;;;;;5000702;28;20321;-89
2022/04/28 08:11:00;;;;;;;19.45;14.40;;;;;;;;;;5001045;28;20030;-89
2022/04/28 08:13:26;;;;;;;20.58;15.95;;;;;;;;;;5000780;28;20023;-89
2022/04/28 08:15:54;;;;;;;17.40;14.07;;;;;;;;;;5000573;28;20026;-89
2022/04/28 08:18:20;;;;;;;16.75;13.73;;;;;;;;;;5000772;28;20101;-89
2022/04/28 08:20:46;;;;;;;17.52;13.73;;;;;;;;;;5000557;28;20033;-89
2022/04/28 08:23:12;;;;;;;15.50;12.30;;;;;;;;;;5004992;28;20050;-89
2022/04/28 08:25:39;;;;;;;15.23;12.23;;;;;;;;;;5018873;28;20113;-90
2022/04/28 08:28:05;;;;;;;17.17;13.68;;;;;;;;;;5017600;28;20026;-89
2022/04/28 08:30:31;;;;;;;19.42;14.27;;;;;;;;;;5015916;28;20042;-88
2022/04/28 08:32:59;;;;;;;17.10;13.65;;;;;;;;;;4999107;28;20042;-87
2022/04/28 08:35:25;;;;;;;11.63;9.82;;;;;;;;;;4995184;28;20039;-88
2022/04/28 08:37:51;;;;;;;9.80;8.45;;;;;;;;;;4992713;28;20050;-89
2022/04/28 08:40:17;;;;;;;10.52;9.20;;;;;;;;;;4999773;28;20035;-90
2022/04/28 08:42:44;;;;;;;11.73;8.70;;;;;;;;;;4999033;28;20027;-90
2022/04/28 08:45:10;;;;;;;14.90;10.55;;;;;;;;;;4999772;28;20117;-89
2022/04/28 08:47:36;;;;;;;8.93;7.38;;;;;;;;;;4999214;28;20462;-89
2022/04/28 08:50:05;;;;;;;8.75;7.30;;;;;;;;;;4998893;28;20034;-90
2022/04/28 08:52:31;;;;;;;9.80;7.35;;;;;;;;;;4998918;28;20054;-90
2022/04/28 08:54:57;;;;;;;5.78;4.60;;;;;;;;;;4999699;28;20073;-89
2022/04/28 08:57:24;;;;;;;5.90;4.97;;;;;;;;;;4999822;28;20316;-89
2022/04/28 08:59:51;;;;;;;8.77;7.25;;;;;;;;;;4998617;28;20027;-89
2022/04/28 09:02:23;;;;;;;13.35;8.60;;;;;;;;;;4998483;28;20042;-90
2022/04/28 09:04:49;;;;;;;9.95;8.23;;;;;;;;;;4998826;28;20022;-90
2022/04/28 09:07:15;;;;;;;9.90;8.20;;;;;;;;;;4998817;28;20034;-89
2022/04/28 09:09:41;;;;;;;11.45;9.32;;;;;;;;;;4999133;28;20328;-88
2022/04/28 09:12:08;;;;;;;11.73;9.70;;;;;;;;;;4998500;28;20039;-89
2022/04/28 09:14:34;;;;;;;14.68;10.95;;;;;;;;;;4998650;28;20030;-90
2022/04/28 09:17:02;;;;;;;16.95;12.48;;;;;;;;;;4999705;28;20317;-89
2022/04/28 09:19:32;;;;;;;20.67;13.70;;;;;;;;;;4998442;28;20037;-90
2022/04/28 09:22:05;;;;;;;18.95;12.85;;;;;;;;;;4998974;28;20042;-89
2022/04/28 09:24:31;;;;;;;20.95;15.30;;;;;;;;;;4999674;28;20049;-89
2022/04/28 09:26:57;;;;;;;28.75;19.48;;;;;;;;;;4998355;28;20022;-90
2022/04/28 09:29:25;;;;;;;22.63;16.60;;;;;;;;;;4998150;28;20022;-89
2022/04/28 09:31:51;;;;;;;25.83;17.77;;;;;;;;;;4998500;28;20038;-91
2022/04/28 09:34:19;;;;;;;24.83;17.67;;;;;;;;;;4998248;28;20033;-92
2022/04/28 09:36:46;;;;;;;25.05;17.65;;;;;;;;;;4998803;28;20041;-87
2022/04/28 09:42:29;;;;;;;23.13;16.55;;;;;;;;;;4998099;28;20026;-89
2022/04/28 09:44:51;;;;;;;13.68;11.80;;;;;;;;;;4999065;28;20056;-90
2022/04/28 09:47:21;;;;;;;14.98;12.32;;;;;;;;;;4997371;28;20123;-90
2022/04/28 09:52:53;;;;;;;15.48;13.43;;;;;;;;;;4996483;28;20143;-89
2022/04/28 09:55:20;;;;;;;18.25;13.82;;;;;;;;;;5009268;28;20025;-89
2022/04/28 09:57:46;;;;;;;13.73;11.80;;;;;;;;;;5017803;28;20103;-89
2022/04/28 10:00:13;;;;;;;12.82;11.02;;;;;;;;;;5004674;28;20117;-90
2022/04/28 10:02:39;;;;;;;14.35;11.23;;;;;;;;;;4988344;28;20489;-90
2022/04/28 10:05:05;;;;;;;13.23;9.90;;;;;;;;;;4979862;28;20038;-90
2022/04/28 10:07:32;;;;;;;11.93;9.77;;;;;;;;;;4980391;28;20043;-90
2022/04/28 10:09:58;;;;;;;12.05;9.63;;;;;;;;;;4979222;28;20022;-91
2022/04/28 10:12:28;;;;;;;12.00;10.02;;;;;;;;;;4979075;28;20030;-91
2022/04/28 10:14:55;;;;;;;12.32;9.95;;;;;;;;;;4978943;28;20031;-90
2022/04/28 10:17:27;;;;;;;12.48;9.98;;;;;;;;;;4987259;28;20088;-90
2022/04/28 10:20:08;;;;;;;12.48;9.65;;;;;;;;;;4998316;28;20069;-90
2022/04/28 10:22:35;;;;;;;14.50;10.88;;;;;;;;;;4997335;28;20309;-90
2022/04/28 10:33:24;;;;;;;16.80;13.73;;;;;;;;;;4998553;28;20049;-90
2022/04/28 10:35:50;;;;;;;15.85;12.32;;;;;;;;;;4997720;28;20030;-90
2022/04/28 10:38:21;;;;;;;17.02;14.50;;;;;;;;;;4997159;28;20034;-91
2022/04/28 10:40:56;;;;;;;17.38;13.80;;;;;;;;;;4998225;28;20030;-89
2022/04/28 10:43:24;;;;;;;14.80;12.07;;;;;;;;;;4998321;28;20029;-91
2022/04/28 10:45:51;;;;;;;15.35;12.68;;;;;;;;;;4997169;28;20018;-90
2022/04/28 10:51:10;;;;;;;16.60;14.10;;;;;;;;;;4997997;28;20090;-91
2022/04/28 10:53:37;;;;;;;21.42;15.00;;;;;;;;;;4997261;28;20031;-91
2022/04/28 10:56:06;;;;;;;19.13;16.00;;;;;;;;;;4997036;28;20440;-90
2022/04/28 10:58:32;;;;;;;23.10;18.27;;;;;;;;;;4998508;28;20317;-90
2022/04/28 11:00:59;;;;;;;19.85;16.15;;;;;;;;;;5000971;28;20038;-91
2022/04/28 11:03:47;;;;;;;19.58;16.85;;;;;;;;;;5001121;28;20076;-91
2022/04/28 11:06:14;;;;;;;21.90;17.40;;;;;;;;;;5000940;28;20061;-91
2022/04/28 11:08:44;;;;;;;21.73;17.25;;;;;;;;;;5001911;28;20030;-90
2022/04/28 11:11:14;;;;;;;22.15;18.10;;;;;;;;;;5000777;28;20046;-92
2022/04/28 11:13:43;;;;;;;23.60;19.20;;;;;;;;;;5001831;28;20022;-92
2022/04/28 11:16:09;;;;;;;23.75;17.63;;;;;;;;;;5001824;28;20069;-91
2022/04/28 11:18:35;;;;;;;19.27;15.45;;;;;;;;;;5000998;28;20034;-91
2022/04/28 11:21:02;;;;;;;20.95;15.63;;;;;;;;;;5001821;28;20153;-91
2022/04/28 11:23:55;;;;;;;20.90;15.48;;;;;;;;;;5000423;28;20038;-91
2022/04/28 11:26:24;;;;;;;19.98;15.80;;;;;;;;;;5001094;28;20037;-91
2022/04/28 11:28:50;;;;;;;19.50;15.85;;;;;;;;;;5001558;28;20037;-91
2022/04/28 11:31:18;;;;;;;18.80;15.15;;;;;;;;;;5001567;28;20030;-92
2022/04/28 11:33:47;;;;;;;18.95;15.55;;;;;;;;;;5000525;28;20030;-94
2022/04/28 11:36:19;;;;;;;20.05;16.38;;;;;;;;;;4987431;28;20034;-92
2022/04/28 11:38:45;;;;;;;;;;;;;;;;;;5002392;28;20042;-91
2022/04/28 11:41:11;;;;;;;19.77;15.50;;;;;;;;;;5001309;28;19914;-91
2022/04/28 11:43:37;;;;;;;18.30;15.43;;;;;;;;;;4992386;28;20022;-92
2022/04/28 11:46:03;;;;;;;20.73;14.85;;;;;;;;;;4983364;28;20313;-92
2022/04/28 11:48:30;;;;;;;17.60;14.80;;;;;;;;;;4984430;28;20015;-92
2022/04/28 11:51:04;;;;;;;17.88;14.98;;;;;;;;;;4987385;28;20500;-92
2022/04/28 11:53:42;;;;;;;16.73;14.43;;;;;;;;;;4980517;28;20037;-92
2022/04/28 11:56:15;;;;;;;18.98;15.85;;;;;;;;;;4981782;28;20027;-92
2022/04/28 11:58:41;;;;;;;20.38;17.05;;;;;;;;;;4981447;28;20111;-91
2022/04/28 12:01:11;;;;;;;22.58;17.50;;;;;;;;;;4981116;28;20106;-92
2022/04/28 12:03:37;;;;;;;19.23;14.73;;;;;;;;;;4980519;28;20062;-94
2022/04/28 12:06:04;;;;;;;19.60;16.08;;;;;;;;;;4981213;28;20321;-91
2022/04/28 12:08:31;;;;;;;17.10;14.50;;;;;;;;;;4981293;28;20033;-92
2022/04/28 12:19:31;;;;;;;19.67;15.65;;;;;;;;;;4999170;28;20037;-92
2022/04/28 12:22:04;;;;;;;18.70;15.43;;;;;;;;;;4998300;28;20054;-94
2022/04/28 12:24:33;;;;;;;18.40;16.20;;;;;;;;;;4999019;28;20022;-92
2022/04/28 12:27:05;;;;;;;20.55;15.10;;;;;;;;;;5015303;28;20130;-92
2022/04/28 12:29:31;;;;;;;18.95;14.90;;;;;;;;;;4998860;28;20116;-92
2022/04/28 12:31:59;;;;;;;21.60;16.08;;;;;;;;;;4998658;28;20038;-93
2022/04/28 12:34:25;;;;;;;20.98;16.23;;;;;;;;;;5015144;28;20074;-93
2022/04/28 12:36:58;;;;;;;17.25;14.48;;;;;;;;;;5015189;28;20089;-93
2022/04/28 12:39:26;;;;;;;20.35;15.63;;;;;;;;;;5015055;28;20061;-93
2022/04/28 12:41:52;;;;;;;17.70;13.93;;;;;;;;;;4998536;28;20050;-91
2022/04/28 12:44:19;;;;;;;18.92;14.98;;;;;;;;;;4998558;28;20022;-93
2022/04/28 12:46:45;;;;;;;19.60;15.38;;;;;;;;;;4995130;28;20074;-95
2022/04/28 12:49:12;;;;;;;19.67;15.15;;;;;;;;;;4980704;28;20357;-94
2022/04/28 12:51:45;;;;;;;18.95;15.23;;;;;;;;;;4979651;28;20078;-93
2022/04/28 12:54:13;;;;;;;18.65;15.32;;;;;;;;;;4980340;28;20018;-94
2022/04/28 12:56:42;;;;;;;20.50;15.63;;;;;;;;;;4979442;28;20019;-93
2022/04/28 12:59:09;;;;;;;19.05;14.82;;;;;;;;;;4980563;28;20030;-94
2022/04/28 13:01:36;;;;;;;21.55;16.33;;;;;;;;;;4980205;28;20027;-94
2022/04/28 13:04:05;;;;;;;22.65;15.93;;;;;;;;;;4979469;28;20023;-93
2022/04/28 13:06:32;;;;;;;21.55;16.73;;;;;;;;;;4979281;28;20023;-92
2022/04/28 13:08:59;;;;;;;19.42;16.05;;;;;;;;;;4978924;28;20027;-93
2022/04/28 13:11:30;;;;;;;21.23;17.02;;;;;;;;;;4979809;28;20114;-92
2022/04/28 13:13:57;;;;;;;21.08;17.00;;;;;;;;;;4980185;28;20154;-93
2022/04/28 13:16:23;;;;;;;20.88;16.33;;;;;;;;;;4980020;28;20031;-92
2022/04/28 13:18:50;;;;;;;27.10;17.60;;;;;;;;;;4979823;28;20027;-92
2022/04/28 13:21:16;;;;;;;22.20;17.08;;;;;;;;;;4979979;28;20054;-93
2022/04/28 13:23:46;;;;;;;23.77;18.15;;;;;;;;;;4977972;28;20035;-91
2022/04/28 13:26:13;;;;;;;25.25;19.33;;;;;;;;;;4979834;28;20023;-92
2022/04/28 13:28:40;;;;;;;23.58;18.67;;;;;;;;;;4978889;28;20047;-92
2022/04/28 13:31:06;;;;;;;24.58;18.67;;;;;;;;;;4978712;28;20073;-94
2022/04/28 13:33:33;;;;;;;23.45;19.08;;;;;;;;;;4991372;28;20065;-94
2022/04/28 13:35:59;;;;;;;22.33;18.55;;;;;;;;;;4999026;28;20054;-94
2022/04/28 13:38:25;;;;;;;23.92;20.15;;;;;;;;;;4999215;28;20109;-92
2022/04/28 13:40:52;;;;;;;26.55;20.63;;;;;;;;;;4998998;28;20472;-93
2022/04/28 13:43:18;;;;;;;25.83;19.67;;;;;;;;;;4998856;28;20064;-93
2022/04/28 13:45:44;;;;;;;26.80;20.30;;;;;;;;;;4998809;28;20425;-93
2022/04/28 13:48:10;;;;;;;26.30;19.77;;;;;;;;;;4998482;28;20431;-94
2022/04/28 13:50:37;;;;;;;24.30;18.83;;;;;;;;;;4998797;28;20089;-94
2022/04/28 13:53:03;;;;;;;23.80;18.35;;;;;;;;;;4998937;28;20031;-92
2022/04/28 13:55:29;;;;;;;24.63;19.55;;;;;;;;;;4999076;28;20026;-92
2022/04/28 13:57:55;;;;;;;25.65;19.73;;;;;;;;;;4998739;28;20037;-92
2022/04/28 14:00:21;;;;;;;23.13;19.00;;;;;;;;;;4997651;28;20050;-93
2022/04/28 14:02:48;;;;;;;23.80;18.02;;;;;;;;;;4998842;28;20076;-93
2022/04/28 14:05:14;;;;;;;22.45;17.13;;;;;;;;;;4998641;28;20022;-93
2022/04/28 14:07:41;;;;;;;23.25;18.75;;;;;;;;;;4998412;28;20042;-93
2022/04/28 14:10:08;;;;;;;24.95;19.85;;;;;;;;;;4998455;28;20026;-92
2022/04/28 14:12:34;;;;;;;22.95;19.08;;;;;;;;;;4998746;28;20031;-92
2022/04/28 14:15:00;;;;;;;27.20;19.23;;;;;;;;;;4999065;28;20030;-93
2022/04/28 14:17:26;;;;;;;23.33;17.90;;;;;;;;;;4999100;28;20018;-92
2022/04/28 14:19:53;;;;;;;23.67;18.42;;;;;;;;;;4997431;28;20172;-94
2022/04/28 14:22:19;;;;;;;21.60;18.20;;;;;;;;;;4997028;28;20038;-93
2022/04/28 14:24:49;;;;;;;20.13;16.75;;;;;;;;;;4998354;28;20062;-93
2022/04/28 14:27:16;;;;;;;22.60;17.45;;;;;;;;;;4998630;28;20090;-93
2022/04/28 14:29:42;;;;;;;21.45;16.98;;;;;;;;;;4997422;28;20385;-92
2022/04/28 14:32:08;;;;;;;19.73;17.45;;;;;;;;;;4998419;28;20027;-94
2022/04/28 14:34:35;;;;;;;21.23;16.60;;;;;;;;;;4997190;28;20058;-92
2022/04/28 14:37:03;;;;;;;20.58;16.10;;;;;;;;;;4998214;28;20030;-92
2022/04/28 14:39:29;;;;;;;22.92;17.88;;;;;;;;;;4998026;28;20030;-93
2022/04/28 14:41:55;;;;;;;23.23;18.08;;;;;;;;;;4998288;28;20324;-93
2022/04/28 14:44:22;;;;;;;20.70;17.50;;;;;;;;;;4998202;28;20019;-92
2022/04/28 14:46:49;;;;;;;26.40;20.67;;;;;;;;;;4998232;28;20030;-94
2022/04/28 14:54:46;;;;;;;26.55;21.00;;;;;;;;;;4998642;28;20045;-94
2022/04/28 14:57:12;;;;;;;27.70;20.20;;;;;;;;;;4998159;28;20031;-94
2022/04/28 14:59:38;;;;;;;30.17;22.63;;;;;;;;;;4998201;28;20030;-92
2022/04/28 15:02:04;;;;;;;30.90;23.55;;;;;;;;;;5003656;28;20025;-95
2022/04/28 15:04:31;;;;;;;81.40;58.10;;;;;;;;;;5005440;28;20022;-95
2022/04/28 15:07:16;;;;;;;172.27;123.28;;;;;;;;;;5004435;28;20316;-95
2022/04/28 15:09:43;;;;;;;83.72;63.25;;;;;;;;;;5000345;28;20041;-94
2022/04/28 15:12:09;;;;;;;66.97;53.83;;;;;;;;;;4998023;28;20048;-95
2022/04/28 15:14:36;;;;;;;42.70;36.72;;;;;;;;;;4998298;28;20030;-95
2022/04/28 15:17:06;;;;;;;33.15;28.10;;;;;;;;;;5001739;28;20033;-94
2022/04/28 15:19:37;;;;;;;28.15;21.05;;;;;;;;;;4998799;28;20050;-94
2022/04/28 15:22:04;;;;;;;28.85;23.45;;;;;;;;;;4997663;28;20129;-92
2022/04/28 15:24:30;;;;;;;25.80;19.35;;;;;;;;;;4997093;28;20487;-93
2022/04/28 15:26:56;;;;;;;25.13;19.25;;;;;;;;;;4997878;28;20026;-94
2022/04/28 15:29:22;;;;;;;25.70;19.45;;;;;;;;;;4997974;28;20031;-94
2022/04/28 15:31:48;;;;;;;25.70;20.17;;;;;;;;;;4997400;28;20050;-94
2022/04/28 15:34:15;;;;;;;26.55;20.02;;;;;;;;;;4996833;28;20023;-93